sensor_id;sensor_type;location;lat;lon;timestamp;temperature;humidity
6740;DHT22;3407;49.882;10.920;2022-07-11T00:04:00;15.20;1.00
6740;DHT22;3407;49.882;10.920;2022-07-11T00:08:56;15.30;1.00
6740;DHT22;3407;49.882;10.920;2022-07-11T00:13:52;15.20;1.00
6740;DHT22;3407;49.882;10.920;2022-07-11T00:18:47;15.10;1.00
6740;DHT22;3407;49.882;10.920;2022-07-11T00:23:43;15.00;1.00
6740;DHT22;3407;49.882;10.920;2022-07-11T00:28:38;15.00;1.00
6740;DHT22;3407;49.882;10.920;2022-07-11T00:33:34;15.00;1.00
6740;DHT22;3407;49.882;10.920;2022-07-11T00:38:29;15.10;1.00
6740;DHT22;3407;49.882;10.920;2022-07-11T00:43:39;15.10;1.00
6740;DHT22;3407;49.882;10.920;2022-07-11T00:48:36;15.10;1.00
6740;DHT22;3407;49.882;10.920;2022-07-11T00:53:32;15.20;1.00
6740;DHT22;3407;49.882;10.920;2022-07-11T00:58:30;15.20;1.00
6740;DHT22;3407;49.882;10.920;2022-07-11T01:03:26;15.10;1.00
6740;DHT22;3407;49.882;10.920;2022-07-11T01:08:21;15.00;1.00
6740;DHT22;3407;49.882;10.920;2022-07-11T01:13:17;14.90;1.00
6740;DHT22;3407;49.882;10.920;2022-07-11T01:18:12;14.90;1.00
6740;DHT22;3407;49.882;10.920;2022-07-11T01:23:08;14.80;1.00
6740;DHT22;3407;49.882;10.920;2022-07-11T01:28:05;14.80;1.00
6740;DHT22;3407;49.882;10.920;2022-07-11T01:33:04;14.70;14.20
6740;DHT22;3407;49.882;10.920;2022-07-11T01:37:59;14.40;30.50
6740;DHT22;3407;49.882;10.920;2022-07-11T01:42:55;14.20;43.70
6740;DHT22;3407;49.882;10.920;2022-07-11T01:47:50;14.10;50.90
6740;DHT22;3407;49.882;10.920;2022-07-11T01:52:46;14.10;58.20
6740;DHT22;3407;49.882;10.920;2022-07-11T01:57:41;14.10;62.80
6740;DHT22;3407;49.882;10.920;2022-07-11T02:02:37;14.00;64.40
6740;DHT22;3407;49.882;10.920;2022-07-11T02:07:33;14.10;66.60
6740;DHT22;3407;49.882;10.920;2022-07-11T02:12:47;14.00;67.90
6740;DHT22;3407;49.882;10.920;2022-07-11T02:17:42;14.00;69.00
6740;DHT22;3407;49.882;10.920;2022-07-11T02:22:38;14.10;72.40
6740;DHT22;3407;49.882;10.920;2022-07-11T02:27:33;14.10;72.80
6740;DHT22;3407;49.882;10.920;2022-07-11T02:32:29;14.20;77.40
6740;DHT22;3407;49.882;10.920;2022-07-11T02:37:24;14.20;77.90
6740;DHT22;3407;49.882;10.920;2022-07-11T02:42:20;14.20;78.60
6740;DHT22;3407;49.882;10.920;2022-07-11T02:47:16;14.30;79.20
6740;DHT22;3407;49.882;10.920;2022-07-11T02:52:11;14.20;77.30
6740;DHT22;3407;49.882;10.920;2022-07-11T02:57:07;14.10;76.10
6740;DHT22;3407;49.882;10.920;2022-07-11T03:02:03;14.10;76.60
6740;DHT22;3407;49.882;10.920;2022-07-11T03:07:00;14.20;80.70
6740;DHT22;3407;49.882;10.920;2022-07-11T03:11:56;14.20;79.40
6740;DHT22;3407;49.882;10.920;2022-07-11T03:16:51;14.20;77.00
6740;DHT22;3407;49.882;10.920;2022-07-11T03:21:47;14.10;77.00
6740;DHT22;3407;49.882;10.920;2022-07-11T03:26:42;14.10;79.00
6740;DHT22;3407;49.882;10.920;2022-07-11T03:31:38;14.10;78.40
6740;DHT22;3407;49.882;10.920;2022-07-11T03:36:33;14.00;76.10
6740;DHT22;3407;49.882;10.920;2022-07-11T03:41:29;14.00;74.90
6740;DHT22;3407;49.882;10.920;2022-07-11T03:46:24;13.90;75.00
6740;DHT22;3407;49.882;10.920;2022-07-11T03:51:20;14.00;75.50
6740;DHT22;3407;49.882;10.920;2022-07-11T03:56:16;13.90;74.50
6740;DHT22;3407;49.882;10.920;2022-07-11T04:01:18;13.90;74.90
6740;DHT22;3407;49.882;10.920;2022-07-11T04:06:15;14.10;78.00
6740;DHT22;3407;49.882;10.920;2022-07-11T04:11:10;14.20;76.00
6740;DHT22;3407;49.882;10.920;2022-07-11T04:16:06;14.20;74.70
6740;DHT22;3407;49.882;10.920;2022-07-11T04:21:02;14.20;73.60
6740;DHT22;3407;49.882;10.920;2022-07-11T04:25:57;14.30;73.70
6740;DHT22;3407;49.882;10.920;2022-07-11T04:30:53;14.30;71.00
6740;DHT22;3407;49.882;10.920;2022-07-11T04:35:48;14.20;68.90
6740;DHT22;3407;49.882;10.920;2022-07-11T04:40:44;14.30;69.30
6740;DHT22;3407;49.882;10.920;2022-07-11T04:45:39;14.30;66.70
6740;DHT22;3407;49.882;10.920;2022-07-11T04:50:35;14.30;63.90
6740;DHT22;3407;49.882;10.920;2022-07-11T04:55:31;14.30;63.70
6740;DHT22;3407;49.882;10.920;2022-07-11T05:00:26;14.30;63.70
6740;DHT22;3407;49.882;10.920;2022-07-11T05:05:22;14.30;63.30
6740;DHT22;3407;49.882;10.920;2022-07-11T05:10:19;14.50;66.10
6740;DHT22;3407;49.882;10.920;2022-07-11T05:15:15;14.60;64.60
6740;DHT22;3407;49.882;10.920;2022-07-11T05:20:10;14.70;62.90
6740;DHT22;3407;49.882;10.920;2022-07-11T05:25:06;14.70;60.10
6740;DHT22;3407;49.882;10.920;2022-07-11T05:30:02;14.80;56.80
6740;DHT22;3407;49.882;10.920;2022-07-11T05:34:59;14.90;54.20
6740;DHT22;3407;49.882;10.920;2022-07-11T05:39:57;14.90;54.60
6740;DHT22;3407;49.882;10.920;2022-07-11T05:44:53;14.90;51.60
6740;DHT22;3407;49.882;10.920;2022-07-11T05:49:48;14.90;48.90
6740;DHT22;3407;49.882;10.920;2022-07-11T05:54:44;15.00;47.90
6740;DHT22;3407;49.882;10.920;2022-07-11T05:59:39;15.20;48.40
6740;DHT22;3407;49.882;10.920;2022-07-11T06:04:35;15.30;44.90
6740;DHT22;3407;49.882;10.920;2022-07-11T06:09:30;15.30;40.90
6740;DHT22;3407;49.882;10.920;2022-07-11T06:14:26;15.30;43.10
6740;DHT22;3407;49.882;10.920;2022-07-11T06:19:21;15.40;41.00
6740;DHT22;3407;49.882;10.920;2022-07-11T06:24:17;15.50;43.70
6740;DHT22;3407;49.882;10.920;2022-07-11T06:29:12;15.50;28.40
6740;DHT22;3407;49.882;10.920;2022-07-11T06:34:08;15.40;31.30
6740;DHT22;3407;49.882;10.920;2022-07-11T06:39:04;15.10;38.30
6740;DHT22;3407;49.882;10.920;2022-07-11T06:43:59;14.90;51.20
6740;DHT22;3407;49.882;10.920;2022-07-11T06:48:55;14.80;58.10
6740;DHT22;3407;49.882;10.920;2022-07-11T06:53:51;15.00;64.60
6740;DHT22;3407;49.882;10.920;2022-07-11T06:58:47;15.20;65.50
6740;DHT22;3407;49.882;10.920;2022-07-11T07:03:42;15.40;61.10
6740;DHT22;3407;49.882;10.920;2022-07-11T07:08:38;15.40;51.50
6740;DHT22;3407;49.882;10.920;2022-07-11T07:13:34;15.30;49.10
6740;DHT22;3407;49.882;10.920;2022-07-11T07:18:29;15.20;47.90
6740;DHT22;3407;49.882;10.920;2022-07-11T07:23:25;15.20;54.90
6740;DHT22;3407;49.882;10.920;2022-07-11T07:28:20;15.30;58.00
6740;DHT22;3407;49.882;10.920;2022-07-11T07:33:16;15.50;58.80
6740;DHT22;3407;49.882;10.920;2022-07-11T07:38:11;15.20;51.20
6740;DHT22;3407;49.882;10.920;2022-07-11T07:43:08;15.30;58.20
6740;DHT22;3407;49.882;10.920;2022-07-11T07:48:05;15.30;60.10
6740;DHT22;3407;49.882;10.920;2022-07-11T07:53:00;15.40;61.80
6740;DHT22;3407;49.882;10.920;2022-07-11T07:57:56;15.50;58.90
6740;DHT22;3407;49.882;10.920;2022-07-11T08:02:51;15.70;62.10
6740;DHT22;3407;49.882;10.920;2022-07-11T08:07:47;15.80;48.10
6740;DHT22;3407;49.882;10.920;2022-07-11T08:12:43;16.10;51.90
6740;DHT22;3407;49.882;10.920;2022-07-11T08:17:38;16.20;49.90
6740;DHT22;3407;49.882;10.920;2022-07-11T08:22:34;16.20;45.90
6740;DHT22;3407;49.882;10.920;2022-07-11T08:27:29;16.10;46.00
6740;DHT22;3407;49.882;10.920;2022-07-11T08:32:25;16.10;45.20
6740;DHT22;3407;49.882;10.920;2022-07-11T08:37:20;16.20;47.10
6740;DHT22;3407;49.882;10.920;2022-07-11T08:42:19;16.20;43.40
6740;DHT22;3407;49.882;10.920;2022-07-11T08:47:15;16.10;49.80
6740;DHT22;3407;49.882;10.920;2022-07-11T08:52:11;16.00;49.20
6740;DHT22;3407;49.882;10.920;2022-07-11T08:57:09;15.80;45.60
6740;DHT22;3407;49.882;10.920;2022-07-11T09:02:06;15.90;54.00
6740;DHT22;3407;49.882;10.920;2022-07-11T09:07:02;16.00;53.40
6740;DHT22;3407;49.882;10.920;2022-07-11T09:11:58;16.30;52.70
6740;DHT22;3407;49.882;10.920;2022-07-11T09:16:58;16.30;50.20
6740;DHT22;3407;49.882;10.920;2022-07-11T09:27:20;16.40;50.80
6740;DHT22;3407;49.882;10.920;2022-07-11T09:32:15;16.30;45.50
6740;DHT22;3407;49.882;10.920;2022-07-11T09:37:11;16.50;53.20
6740;DHT22;3407;49.882;10.920;2022-07-11T09:42:06;16.70;45.20
6740;DHT22;3407;49.882;10.920;2022-07-11T09:47:08;16.80;44.20
6740;DHT22;3407;49.882;10.920;2022-07-11T09:52:07;16.90;33.10
6740;DHT22;3407;49.882;10.920;2022-07-11T09:57:10;17.10;40.80
6740;DHT22;3407;49.882;10.920;2022-07-11T10:02:08;17.10;26.70
6740;DHT22;3407;49.882;10.920;2022-07-11T10:07:09;17.40;34.50
6740;DHT22;3407;49.882;10.920;2022-07-11T10:12:05;18.10;23.20
6740;DHT22;3407;49.882;10.920;2022-07-11T10:17:09;18.60;1.00
6740;DHT22;3407;49.882;10.920;2022-07-11T10:22:22;19.10;1.00
6740;DHT22;3407;49.882;10.920;2022-07-11T10:27:51;19.80;1.00
6740;DHT22;3407;49.882;10.920;2022-07-11T10:33:05;19.70;1.00
6740;DHT22;3407;49.882;10.920;2022-07-11T10:38:05;19.90;1.00
6740;DHT22;3407;49.882;10.920;2022-07-11T10:43:01;20.40;1.00
6740;DHT22;3407;49.882;10.920;2022-07-11T10:48:09;20.70;99.90
6740;DHT22;3407;49.882;10.920;2022-07-11T10:53:10;20.80;1.00
6740;DHT22;3407;49.882;10.920;2022-07-11T11:03:19;20.70;99.90
6740;DHT22;3407;49.882;10.920;2022-07-11T11:13:32;21.40;99.90
6740;DHT22;3407;49.882;10.920;2022-07-11T11:18:31;22.10;98.10
6740;DHT22;3407;49.882;10.920;2022-07-11T11:28:59;24.60;1.00
6740;DHT22;3407;49.882;10.920;2022-07-11T11:34:01;24.00;1.00
6740;DHT22;3407;49.882;10.920;2022-07-11T11:38:57;23.70;99.90
6740;DHT22;3407;49.882;10.920;2022-07-11T11:43:54;25.60;1.00
6740;DHT22;3407;49.882;10.920;2022-07-11T11:48:54;27.00;99.90
6740;DHT22;3407;49.882;10.920;2022-07-11T11:53:53;26.70;99.90
6740;DHT22;3407;49.882;10.920;2022-07-11T11:58:51;26.00;99.90
6740;DHT22;3407;49.882;10.920;2022-07-11T12:08:42;24.90;99.90
6740;DHT22;3407;49.882;10.920;2022-07-11T12:13:38;24.60;99.90
6740;DHT22;3407;49.882;10.920;2022-07-11T12:18:37;24.50;99.90
6740;DHT22;3407;49.882;10.920;2022-07-11T12:23:32;23.90;99.90
6740;DHT22;3407;49.882;10.920;2022-07-11T12:28:32;24.30;99.90
6740;DHT22;3407;49.882;10.920;2022-07-11T12:33:27;23.60;99.90
6740;DHT22;3407;49.882;10.920;2022-07-11T12:38:23;23.20;99.90
6740;DHT22;3407;49.882;10.920;2022-07-11T12:43:44;23.30;99.90
6740;DHT22;3407;49.882;10.920;2022-07-11T12:49:01;23.40;99.90
6740;DHT22;3407;49.882;10.920;2022-07-11T12:54:05;23.20;99.90
6740;DHT22;3407;49.882;10.920;2022-07-11T12:59:02;23.30;99.90
6740;DHT22;3407;49.882;10.920;2022-07-11T13:03:58;23.20;99.90
6740;DHT22;3407;49.882;10.920;2022-07-11T13:08:54;23.30;99.90
6740;DHT22;3407;49.882;10.920;2022-07-11T13:13:50;23.70;99.90
6740;DHT22;3407;49.882;10.920;2022-07-11T13:18:46;23.40;99.90
6740;DHT22;3407;49.882;10.920;2022-07-11T13:23:42;23.40;99.90
6740;DHT22;3407;49.882;10.920;2022-07-11T13:28:38;23.30;99.90
6740;DHT22;3407;49.882;10.920;2022-07-11T13:33:33;22.80;99.90
6740;DHT22;3407;49.882;10.920;2022-07-11T13:38:29;22.30;99.90
6740;DHT22;3407;49.882;10.920;2022-07-11T13:43:25;21.90;99.90
6740;DHT22;3407;49.882;10.920;2022-07-11T13:48:20;21.80;1.00
6740;DHT22;3407;49.882;10.920;2022-07-11T13:53:16;21.70;1.00
6740;DHT22;3407;49.882;10.920;2022-07-11T13:58:11;22.10;1.00
6740;DHT22;3407;49.882;10.920;2022-07-11T14:03:19;22.90;99.90
6740;DHT22;3407;49.882;10.920;2022-07-11T14:08:15;23.30;99.90
6740;DHT22;3407;49.882;10.920;2022-07-11T14:13:11;23.50;99.90
6740;DHT22;3407;49.882;10.920;2022-07-11T14:18:06;23.30;99.90
6740;DHT22;3407;49.882;10.920;2022-07-11T14:23:02;23.30;99.90
6740;DHT22;3407;49.882;10.920;2022-07-11T14:27:59;22.90;99.90
6740;DHT22;3407;49.882;10.920;2022-07-11T14:32:54;22.40;99.90
6740;DHT22;3407;49.882;10.920;2022-07-11T14:37:50;21.80;1.00
6740;DHT22;3407;49.882;10.920;2022-07-11T14:42:46;21.20;99.90
6740;DHT22;3407;49.882;10.920;2022-07-11T14:47:41;20.90;1.00
6740;DHT22;3407;49.882;10.920;2022-07-11T14:52:38;20.70;1.00
6740;DHT22;3407;49.882;10.920;2022-07-11T14:57:34;20.80;1.00
6740;DHT22;3407;49.882;10.920;2022-07-11T15:02:29;21.30;99.90
6740;DHT22;3407;49.882;10.920;2022-07-11T15:07:44;21.70;68.70
6740;DHT22;3407;49.882;10.920;2022-07-11T15:12:58;22.10;1.00
6740;DHT22;3407;49.882;10.920;2022-07-11T15:17:53;22.10;1.00
6740;DHT22;3407;49.882;10.920;2022-07-11T15:22:49;21.90;1.00
6740;DHT22;3407;49.882;10.920;2022-07-11T15:27:45;21.40;1.00
6740;DHT22;3407;49.882;10.920;2022-07-11T15:32:40;21.10;99.90
6740;DHT22;3407;49.882;10.920;2022-07-11T15:37:36;21.10;99.90
6740;DHT22;3407;49.882;10.920;2022-07-11T15:42:32;21.10;1.00
6740;DHT22;3407;49.882;10.920;2022-07-11T15:47:27;21.30;99.90
6740;DHT22;3407;49.882;10.920;2022-07-11T15:52:23;21.30;99.90
6740;DHT22;3407;49.882;10.920;2022-07-11T15:57:18;21.00;99.90
6740;DHT22;3407;49.882;10.920;2022-07-11T16:02:14;21.10;99.90
6740;DHT22;3407;49.882;10.920;2022-07-11T16:07:10;21.30;99.90
6740;DHT22;3407;49.882;10.920;2022-07-11T16:12:05;21.10;99.90
6740;DHT22;3407;49.882;10.920;2022-07-11T16:17:03;20.90;1.00
6740;DHT22;3407;49.882;10.920;2022-07-11T16:22:00;20.80;1.00
6740;DHT22;3407;49.882;10.920;2022-07-11T16:26:56;20.60;1.00
6740;DHT22;3407;49.882;10.920;2022-07-11T16:31:51;20.60;1.00
6740;DHT22;3407;49.882;10.920;2022-07-11T16:36:47;20.80;1.00
6740;DHT22;3407;49.882;10.920;2022-07-11T16:41:42;21.00;99.90
6740;DHT22;3407;49.882;10.920;2022-07-11T16:46:57;21.20;99.90
6740;DHT22;3407;49.882;10.920;2022-07-11T16:51:53;21.30;99.90
6740;DHT22;3407;49.882;10.920;2022-07-11T16:56:50;21.30;99.90
6740;DHT22;3407;49.882;10.920;2022-07-11T17:01:46;21.20;99.90
6740;DHT22;3407;49.882;10.920;2022-07-11T17:06:43;21.10;1.00
6740;DHT22;3407;49.882;10.920;2022-07-11T17:11:38;21.00;1.00
6740;DHT22;3407;49.882;10.920;2022-07-11T17:16:34;20.70;30.00
6740;DHT22;3407;49.882;10.920;2022-07-11T17:21:31;20.50;99.90
6740;DHT22;3407;49.882;10.920;2022-07-11T17:26:28;20.10;1.00
6740;DHT22;3407;49.882;10.920;2022-07-11T17:31:24;20.00;56.90
6740;DHT22;3407;49.882;10.920;2022-07-11T17:36:20;20.00;6.10
6740;DHT22;3407;49.882;10.920;2022-07-11T17:41:16;20.10;1.00
6740;DHT22;3407;49.882;10.920;2022-07-11T17:46:11;20.20;99.90
6740;DHT22;3407;49.882;10.920;2022-07-11T17:51:07;20.30;99.90
6740;DHT22;3407;49.882;10.920;2022-07-11T17:56:04;20.20;99.90
6740;DHT22;3407;49.882;10.920;2022-07-11T18:01:00;20.10;1.00
6740;DHT22;3407;49.882;10.920;2022-07-11T18:05:58;20.10;75.60
6740;DHT22;3407;49.882;10.920;2022-07-11T18:10:53;19.90;28.10
6740;DHT22;3407;49.882;10.920;2022-07-11T18:15:51;19.80;99.90
6740;DHT22;3407;49.882;10.920;2022-07-11T18:20:48;19.70;1.00
6740;DHT22;3407;49.882;10.920;2022-07-11T18:25:44;19.60;1.00
6740;DHT22;3407;49.882;10.920;2022-07-11T18:30:39;19.50;1.00
6740;DHT22;3407;49.882;10.920;2022-07-11T18:35:35;19.30;99.90
6740;DHT22;3407;49.882;10.920;2022-07-11T18:40:31;19.20;1.00
6740;DHT22;3407;49.882;10.920;2022-07-11T18:45:45;19.20;99.90
6740;DHT22;3407;49.882;10.920;2022-07-11T18:50:41;19.20;99.90
6740;DHT22;3407;49.882;10.920;2022-07-11T18:55:36;19.10;99.90
6740;DHT22;3407;49.882;10.920;2022-07-11T19:00:32;19.00;1.00
6740;DHT22;3407;49.882;10.920;2022-07-11T19:05:28;18.90;99.90
6740;DHT22;3407;49.882;10.920;2022-07-11T19:10:28;18.80;1.00
6740;DHT22;3407;49.882;10.920;2022-07-11T19:15:24;18.80;99.90
6740;DHT22;3407;49.882;10.920;2022-07-11T19:20:19;18.70;1.00
6740;DHT22;3407;49.882;10.920;2022-07-11T19:25:15;18.70;99.90
6740;DHT22;3407;49.882;10.920;2022-07-11T19:30:11;18.60;99.90
6740;DHT22;3407;49.882;10.920;2022-07-11T19:35:07;18.50;27.80
6740;DHT22;3407;49.882;10.920;2022-07-11T19:40:03;18.40;1.00
6740;DHT22;3407;49.882;10.920;2022-07-11T19:44:59;18.20;99.90
6740;DHT22;3407;49.882;10.920;2022-07-11T19:49:54;18.00;1.00
6740;DHT22;3407;49.882;10.920;2022-07-11T19:54:50;17.80;99.90
6740;DHT22;3407;49.882;10.920;2022-07-11T20:00:05;17.70;1.00
6740;DHT22;3407;49.882;10.920;2022-07-11T20:05:01;17.60;99.90
6740;DHT22;3407;49.882;10.920;2022-07-11T20:09:56;17.40;24.20
6740;DHT22;3407;49.882;10.920;2022-07-11T20:14:52;17.30;99.90
6740;DHT22;3407;49.882;10.920;2022-07-11T20:19:48;17.20;1.00
6740;DHT22;3407;49.882;10.920;2022-07-11T20:24:44;17.10;1.00
6740;DHT22;3407;49.882;10.920;2022-07-11T20:29:39;17.00;99.90
6740;DHT22;3407;49.882;10.920;2022-07-11T20:34:35;17.00;99.90
6740;DHT22;3407;49.882;10.920;2022-07-11T20:39:32;16.90;99.90
6740;DHT22;3407;49.882;10.920;2022-07-11T20:44:29;16.80;1.00
6740;DHT22;3407;49.882;10.920;2022-07-11T20:49:25;16.70;1.00
6740;DHT22;3407;49.882;10.920;2022-07-11T20:54:21;16.60;1.00
6740;DHT22;3407;49.882;10.920;2022-07-11T20:59:17;16.50;1.00
6740;DHT22;3407;49.882;10.920;2022-07-11T21:04:14;16.30;1.00
6740;DHT22;3407;49.882;10.920;2022-07-11T21:09:10;16.20;1.00
6740;DHT22;3407;49.882;10.920;2022-07-11T21:14:06;16.10;1.00
6740;DHT22;3407;49.882;10.920;2022-07-11T21:19:02;15.90;1.00
6740;DHT22;3407;49.882;10.920;2022-07-11T21:23:58;15.80;1.00
6740;DHT22;3407;49.882;10.920;2022-07-11T21:28:53;15.60;1.00
6740;DHT22;3407;49.882;10.920;2022-07-11T21:33:49;15.40;1.00
6740;DHT22;3407;49.882;10.920;2022-07-11T21:38:44;15.30;1.00
6740;DHT22;3407;49.882;10.920;2022-07-11T21:43:40;15.20;1.00
6740;DHT22;3407;49.882;10.920;2022-07-11T21:48:35;15.10;1.00
6740;DHT22;3407;49.882;10.920;2022-07-11T21:53:31;15.00;1.00
6740;DHT22;3407;49.882;10.920;2022-07-11T21:58:26;15.10;1.00
6740;DHT22;3407;49.882;10.920;2022-07-11T22:03:22;14.90;1.00
6740;DHT22;3407;49.882;10.920;2022-07-11T22:08:18;14.90;1.00
6740;DHT22;3407;49.882;10.920;2022-07-11T22:13:14;15.00;1.00
6740;DHT22;3407;49.882;10.920;2022-07-11T22:18:10;14.90;1.00
6740;DHT22;3407;49.882;10.920;2022-07-11T22:23:06;14.80;1.00
6740;DHT22;3407;49.882;10.920;2022-07-11T22:28:01;14.60;1.00
6740;DHT22;3407;49.882;10.920;2022-07-11T22:32:57;14.40;1.00
6740;DHT22;3407;49.882;10.920;2022-07-11T22:37:52;14.20;1.00
6740;DHT22;3407;49.882;10.920;2022-07-11T22:42:48;14.10;1.00
6740;DHT22;3407;49.882;10.920;2022-07-11T22:48:02;14.10;1.00
6740;DHT22;3407;49.882;10.920;2022-07-11T22:52:58;14.10;1.00
6740;DHT22;3407;49.882;10.920;2022-07-11T22:57:53;14.00;1.00
6740;DHT22;3407;49.882;10.920;2022-07-11T23:02:49;14.00;1.00
6740;DHT22;3407;49.882;10.920;2022-07-11T23:07:45;13.90;1.00
6740;DHT22;3407;49.882;10.920;2022-07-11T23:12:40;13.80;1.00
6740;DHT22;3407;49.882;10.920;2022-07-11T23:17:36;13.80;1.00
6740;DHT22;3407;49.882;10.920;2022-07-11T23:22:31;13.60;1.00
6740;DHT22;3407;49.882;10.920;2022-07-11T23:27:27;13.40;1.00
6740;DHT22;3407;49.882;10.920;2022-07-11T23:32:23;13.30;1.00
6740;DHT22;3407;49.882;10.920;2022-07-11T23:37:19;13.20;1.00
6740;DHT22;3407;49.882;10.920;2022-07-11T23:42:14;13.20;1.60
6740;DHT22;3407;49.882;10.920;2022-07-11T23:47:10;13.30;2.00
6740;DHT22;3407;49.882;10.920;2022-07-11T23:52:06;13.30;1.00
6740;DHT22;3407;49.882;10.920;2022-07-11T23:57:02;13.20;1.00
